createdAt,value
2022-08-26T00:01:53.985Z,26.70
2022-08-26T00:04:23.760Z,23.27
2022-08-26T00:06:52.301Z,36.05
2022-08-26T00:09:19.642Z,26.60
2022-08-26T00:11:47.229Z,26.67
2022-08-26T00:14:15.318Z,28.52
2022-08-26T00:16:47.606Z,24.23
2022-08-26T00:19:18.391Z,24.33
2022-08-26T00:21:50.112Z,21.30
2022-08-26T00:24:19.869Z,24.55
2022-08-26T00:26:47.925Z,27.67
2022-08-26T00:29:15.194Z,26.45
2022-08-26T00:31:42.541Z,32.83
2022-08-26T00:34:15.231Z,28.73
2022-08-26T00:36:43.624Z,23.02
2022-08-26T00:39:11.046Z,25.50
2022-08-26T00:41:39.927Z,36.72
2022-08-26T00:44:08.059Z,25.73
2022-08-26T00:46:39.865Z,42.05
2022-08-26T00:49:19.881Z,37.20
2022-08-26T00:51:53.432Z,38.55
2022-08-26T00:54:24.154Z,42.55
2022-08-26T00:57:00.953Z,49.78
2022-08-26T00:59:32.725Z,47.45
2022-08-26T01:02:00.678Z,45.42
2022-08-26T01:04:33.587Z,57.42
2022-08-26T01:07:01.445Z,47.60
2022-08-26T01:09:28.851Z,49.22
2022-08-26T01:12:00.963Z,44.67
2022-08-26T01:14:32.809Z,38.45
2022-08-26T01:17:03.254Z,49.53
2022-08-26T01:19:40.904Z,59.00
2022-08-26T01:22:19.419Z,53.75
2022-08-26T01:24:48.991Z,52.17
2022-08-26T01:27:19.698Z,47.53
2022-08-26T01:29:49.305Z,53.20
2022-08-26T01:32:19.761Z,46.35
2022-08-26T01:34:48.388Z,44.50
2022-08-26T01:37:18.542Z,43.13
2022-08-26T01:39:50.244Z,38.63
2022-08-26T01:42:19.973Z,48.55
2022-08-26T01:44:54.278Z,43.40
2022-08-26T01:47:25.750Z,43.25
2022-08-26T01:49:55.952Z,44.72
2022-08-26T01:52:27.590Z,59.08
2022-08-26T01:54:57.160Z,59.95
2022-08-26T01:57:25.610Z,54.88
2022-08-26T01:59:55.461Z,58.33
2022-08-26T02:02:24.440Z,53.03
2022-08-26T02:04:59.681Z,61.20
2022-08-26T02:07:28.143Z,54.03
2022-08-26T02:09:55.386Z,53.30
2022-08-26T02:12:23.086Z,47.10
2022-08-26T02:14:54.187Z,44.78
2022-08-26T02:17:33.683Z,45.67
2022-08-26T02:20:03.611Z,47.50
2022-08-26T02:22:31.131Z,55.72
2022-08-26T02:25:10.108Z,50.38
2022-08-26T02:27:37.455Z,50.00
2022-08-26T02:30:18.670Z,46.03
2022-08-26T02:32:46.511Z,41.83
2022-08-26T02:35:20.156Z,46.47
2022-08-26T02:37:49.362Z,53.58
2022-08-26T02:40:21.717Z,46.05
2022-08-26T02:42:49.547Z,35.42
2022-08-26T02:45:23.040Z,37.90
2022-08-26T02:47:52.371Z,33.55
2022-08-26T02:50:19.971Z,37.63
2022-08-26T02:52:48.472Z,41.03
2022-08-26T02:55:16.552Z,38.63
2022-08-26T02:57:43.806Z,39.05
2022-08-26T03:00:14.705Z,37.38
2022-08-26T03:02:42.546Z,41.33
2022-08-26T03:05:11.357Z,35.47
2022-08-26T03:07:38.717Z,31.23
2022-08-26T03:10:08.458Z,36.40
2022-08-26T03:12:36.285Z,36.85
2022-08-26T03:15:17.492Z,35.53
2022-08-26T03:17:47.641Z,32.00
2022-08-26T03:20:17.439Z,31.08
2022-08-26T03:22:45.562Z,37.38
2022-08-26T03:25:15.638Z,38.47
2022-08-26T03:27:43.325Z,29.13
2022-08-26T03:30:35.109Z,33.67
2022-08-26T03:33:08.674Z,34.33
2022-08-26T03:35:36.608Z,34.38
2022-08-26T03:38:04.865Z,32.30
2022-08-26T03:40:33.945Z,33.80
2022-08-26T03:43:02.209Z,34.20
2022-08-26T03:45:29.406Z,31.83
2022-08-26T03:47:57.811Z,32.53
2022-08-26T03:50:26.148Z,32.00
2022-08-26T03:52:55.299Z,28.33
2022-08-26T03:55:25.886Z,28.05
2022-08-26T03:57:55.022Z,28.02
2022-08-26T04:00:22.745Z,25.73
2022-08-26T04:02:53.271Z,26.35
2022-08-26T04:05:22.676Z,28.73
2022-08-26T04:07:51.182Z,30.35
2022-08-26T04:10:28.700Z,32.85
2022-08-26T04:12:58.856Z,30.63
2022-08-26T04:15:27.192Z,28.65
2022-08-26T04:17:55.961Z,29.90
2022-08-26T04:20:26.589Z,34.50
2022-08-26T04:22:53.860Z,31.70
2022-08-26T04:25:21.345Z,31.77
2022-08-26T04:27:48.660Z,30.65
2022-08-26T04:30:17.810Z,31.15
2022-08-26T04:32:45.660Z,31.63
2022-08-26T04:35:12.966Z,27.77
2022-08-26T04:37:40.154Z,27.35
2022-08-26T04:40:10.934Z,25.10
2022-08-26T04:42:38.719Z,29.92
2022-08-26T04:45:09.982Z,21.20
2022-08-26T04:47:37.711Z,31.38
2022-08-26T04:50:07.511Z,24.65
2022-08-26T04:52:36.326Z,24.98
2022-08-26T04:55:06.629Z,28.92
2022-08-26T04:57:36.306Z,24.70
2022-08-26T05:00:07.382Z,23.17
2022-08-26T05:02:34.488Z,23.25
2022-08-26T05:05:02.577Z,25.20
2022-08-26T05:07:31.256Z,25.80
2022-08-26T05:09:59.062Z,20.50
2022-08-26T05:12:27.844Z,22.08
2022-08-26T05:14:55.039Z,26.10
2022-08-26T05:17:22.686Z,22.75
2022-08-26T05:19:50.770Z,21.25
2022-08-26T05:22:18.368Z,43.88
2022-08-26T05:24:46.508Z,20.35
2022-08-26T05:27:14.198Z,22.00
2022-08-26T05:29:41.249Z,22.70
2022-08-26T05:32:08.239Z,21.20
2022-08-26T05:34:38.710Z,22.20
2022-08-26T05:37:06.115Z,11.85
2022-08-26T05:39:33.857Z,16.25
2022-08-26T05:42:02.329Z,15.88
2022-08-26T05:44:29.506Z,19.05
2022-08-26T05:47:16.647Z,17.58
2022-08-26T05:49:51.294Z,17.35
2022-08-26T05:52:19.889Z,18.00
2022-08-26T05:54:47.676Z,16.48
2022-08-26T05:57:16.147Z,20.75
2022-08-26T05:59:45.820Z,17.50
2022-08-26T06:02:12.956Z,19.63
2022-08-26T06:04:40.809Z,17.45
2022-08-26T06:07:12.090Z,15.43
2022-08-26T06:09:40.591Z,13.95
2022-08-26T06:12:07.685Z,18.60
2022-08-26T06:14:36.075Z,14.68
2022-08-26T06:17:03.106Z,16.77
2022-08-26T06:19:33.035Z,20.42
2022-08-26T06:22:23.583Z,17.77
2022-08-26T06:25:10.007Z,12.98
2022-08-26T06:27:37.451Z,15.80
2022-08-26T06:30:04.781Z,21.92
2022-08-26T06:32:31.859Z,21.90
2022-08-26T06:34:59.386Z,16.98
2022-08-26T06:37:26.490Z,24.25
2022-08-26T06:39:53.509Z,24.13
2022-08-26T06:42:20.789Z,17.67
2022-08-26T06:44:47.922Z,18.20
2022-08-26T06:47:15.152Z,15.38
2022-08-26T06:49:42.439Z,10.23
2022-08-26T06:52:11.339Z,20.67
2022-08-26T06:54:41.549Z,14.32
2022-08-26T06:57:11.554Z,17.73
2022-08-26T06:59:38.838Z,13.88
2022-08-26T07:02:08.711Z,15.38
2022-08-26T07:04:41.266Z,17.02
2022-08-26T07:07:09.728Z,14.93
2022-08-26T07:09:37.540Z,11.52
2022-08-26T07:12:06.817Z,15.55
2022-08-26T07:14:35.044Z,15.32
2022-08-26T07:17:02.641Z,16.70
2022-08-26T07:19:31.602Z,14.40
2022-08-26T07:22:03.363Z,15.80
2022-08-26T07:24:36.565Z,14.63
2022-08-26T07:27:06.608Z,15.38
2022-08-26T07:29:35.641Z,15.30
2022-08-26T07:32:03.908Z,13.57
2022-08-26T07:34:33.345Z,18.05
2022-08-26T07:37:01.062Z,10.73
2022-08-26T07:39:28.354Z,18.55
2022-08-26T07:42:07.674Z,10.85
2022-08-26T07:44:37.455Z,11.95
2022-08-26T07:47:10.553Z,7.97
2022-08-26T07:49:52.815Z,11.73
2022-08-26T07:52:25.940Z,11.65
2022-08-26T07:54:56.058Z,16.60
2022-08-26T07:57:24.281Z,10.68
2022-08-26T07:59:51.821Z,15.32
2022-08-26T08:02:21.391Z,11.10
2022-08-26T08:04:48.545Z,12.80
2022-08-26T08:07:15.583Z,12.18
2022-08-26T08:09:42.913Z,16.33
2022-08-26T08:12:14.231Z,9.18
2022-08-26T08:14:45.322Z,15.63
2022-08-26T08:17:14.471Z,16.55
2022-08-26T08:19:43.027Z,15.85
2022-08-26T08:22:17.200Z,13.55
2022-08-26T08:24:49.737Z,9.20
2022-08-26T08:27:22.865Z,13.48
2022-08-26T08:29:54.920Z,13.07
2022-08-26T08:32:23.683Z,14.82
2022-08-26T08:34:50.957Z,10.20
2022-08-26T08:37:18.100Z,12.18
2022-08-26T08:39:45.392Z,14.82
2022-08-26T08:43:01.463Z,14.20
2022-08-26T08:45:37.158Z,16.30
2022-08-26T08:48:16.247Z,12.25
2022-08-26T08:50:47.521Z,12.50
2022-08-26T08:53:20.440Z,13.93
2022-08-26T08:56:09.235Z,13.88
2022-08-26T08:58:56.897Z,13.02
2022-08-26T09:01:45.439Z,13.25
2022-08-26T09:04:51.562Z,12.25
2022-08-26T09:07:40.548Z,17.77
2022-08-26T09:10:29.035Z,11.00
2022-08-26T09:12:57.201Z,17.70
2022-08-26T09:15:33.247Z,14.15
2022-08-26T09:18:09.278Z,14.45
2022-08-26T09:21:12.691Z,11.68
2022-08-26T09:23:43.045Z,19.70
2022-08-26T09:26:19.954Z,15.25
2022-08-26T09:28:55.313Z,9.88
2022-08-26T09:31:29.555Z,17.67
2022-08-26T09:34:27.427Z,14.93
2022-08-26T09:36:59.925Z,8.38
2022-08-26T09:39:38.776Z,15.07
2022-08-26T09:42:25.436Z,12.77
2022-08-26T09:45:00.195Z,16.38
2022-08-26T09:47:30.348Z,16.48
2022-08-26T09:50:01.613Z,10.88
2022-08-26T09:52:29.378Z,18.17
2022-08-26T09:55:20.973Z,17.15
2022-08-26T09:57:54.993Z,21.23
2022-08-26T10:00:39.216Z,13.13
2022-08-26T10:03:11.464Z,13.65
2022-08-26T10:05:46.500Z,10.57
2022-08-26T10:08:23.498Z,16.50
2022-08-26T10:10:53.325Z,16.67
2022-08-26T10:13:34.166Z,13.07
2022-08-26T10:16:18.944Z,22.40
2022-08-26T10:19:00.281Z,16.30
2022-08-26T10:21:33.167Z,8.88
2022-08-26T10:24:03.546Z,9.88
2022-08-26T10:26:58.030Z,15.90
2022-08-26T10:29:35.893Z,10.43
2022-08-26T10:32:13.851Z,13.77
2022-08-26T10:34:42.366Z,11.18
2022-08-26T10:37:21.499Z,13.45
2022-08-26T10:39:57.236Z,13.98
2022-08-26T10:42:40.684Z,13.23
2022-08-26T10:45:14.982Z,21.20
2022-08-26T10:47:52.294Z,19.25
2022-08-26T10:50:22.286Z,10.32
2022-08-26T10:52:59.678Z,18.38
2022-08-26T10:55:39.705Z,17.35
2022-08-26T10:58:28.642Z,22.40
2022-08-26T11:01:29.704Z,13.40
2022-08-26T11:04:20.392Z,12.23
2022-08-26T11:06:52.251Z,12.15
2022-08-26T11:09:47.570Z,15.32
2022-08-26T11:13:16.002Z,10.60
2022-08-26T11:15:44.170Z,12.32
2022-08-26T11:18:39.308Z,13.52
2022-08-26T11:21:44.533Z,13.00
2022-08-26T11:25:01.063Z,12.07
2022-08-26T11:27:35.406Z,21.65
2022-08-26T11:30:07.572Z,11.27
2022-08-26T11:32:34.669Z,18.23
2022-08-26T11:35:26.808Z,20.17
2022-08-26T11:38:04.997Z,13.00
2022-08-26T11:40:37.702Z,12.27
2022-08-26T11:43:14.919Z,14.95
2022-08-26T11:45:59.682Z,10.48
2022-08-26T11:48:26.844Z,9.20
2022-08-26T11:51:15.749Z,12.02
2022-08-26T11:53:47.155Z,16.10
2022-08-26T11:56:24.593Z,17.55
2022-08-26T11:58:57.107Z,12.18
2022-08-26T12:01:31.440Z,12.60
2022-08-26T12:04:01.014Z,17.58
2022-08-26T12:06:45.000Z,9.43
2022-08-26T12:09:53.142Z,13.30
2022-08-26T12:12:34.551Z,14.38
2022-08-26T12:15:11.658Z,12.18
2022-08-26T12:17:39.966Z,17.30
2022-08-26T12:20:48.312Z,14.70
2022-08-26T12:23:34.845Z,8.88
2022-08-26T12:26:20.032Z,23.38
2022-08-26T12:28:56.130Z,14.07
2022-08-26T12:31:45.215Z,10.73
2022-08-26T12:34:18.516Z,11.23
2022-08-26T12:36:55.124Z,13.70
2022-08-26T12:39:36.399Z,24.90
2022-08-26T12:42:06.573Z,16.10
2022-08-26T12:44:33.699Z,20.75
2022-08-26T12:47:42.645Z,12.38
2022-08-26T12:50:19.364Z,9.45
2022-08-26T12:53:05.194Z,11.15
2022-08-26T12:55:37.800Z,13.00
2022-08-26T12:58:13.828Z,13.65
2022-08-26T13:00:43.656Z,17.70
2022-08-26T13:03:43.975Z,16.23
2022-08-26T13:06:16.075Z,12.93
2022-08-26T13:08:48.916Z,16.15
2022-08-26T13:11:21.454Z,14.27
2022-08-26T13:13:53.706Z,11.05
2022-08-26T13:16:22.338Z,13.88
2022-08-26T13:18:52.353Z,16.15
2022-08-26T13:21:26.096Z,11.57
2022-08-26T13:23:54.282Z,14.32
2022-08-26T13:26:22.000Z,17.10
2022-08-26T13:29:01.152Z,17.55
2022-08-26T13:31:32.686Z,9.57
2022-08-26T13:34:01.067Z,13.00
2022-08-26T13:36:28.442Z,9.43
2022-08-26T13:38:55.750Z,15.27
2022-08-26T13:41:29.093Z,13.32
2022-08-26T13:43:59.652Z,13.65
2022-08-26T13:46:28.287Z,21.30
2022-08-26T13:48:56.926Z,14.50
2022-08-26T13:51:25.753Z,8.90
2022-08-26T13:53:53.451Z,15.52
2022-08-26T13:56:21.540Z,16.08
2022-08-26T13:58:49.627Z,16.42
2022-08-26T14:01:17.645Z,19.58
2022-08-26T14:03:45.156Z,7.82
2022-08-26T14:06:13.023Z,16.55
2022-08-26T14:08:41.109Z,9.25
2022-08-26T14:11:08.580Z,12.25
2022-08-26T14:13:36.306Z,8.88
2022-08-26T14:16:07.670Z,20.77
2022-08-26T14:18:41.840Z,13.02
2022-08-26T14:21:12.835Z,11.13
2022-08-26T14:23:40.293Z,15.93
2022-08-26T14:26:08.504Z,20.33
2022-08-26T14:28:36.307Z,14.40
2022-08-26T14:31:04.368Z,15.77
2022-08-26T14:33:34.060Z,6.00
2022-08-26T14:36:19.957Z,11.52
2022-08-26T14:38:47.443Z,11.50
2022-08-26T14:41:17.359Z,11.00
2022-08-26T14:43:54.651Z,11.65
2022-08-26T14:46:22.186Z,21.58
2022-08-26T14:48:49.312Z,15.45
2022-08-26T14:51:16.321Z,16.40
2022-08-26T14:54:02.269Z,12.65
2022-08-26T14:56:31.407Z,15.40
2022-08-26T14:58:58.624Z,10.60
2022-08-26T15:01:30.347Z,13.40
2022-08-26T15:03:58.970Z,12.85
2022-08-26T15:06:26.841Z,7.78
2022-08-26T15:08:54.270Z,12.23
2022-08-26T15:11:22.498Z,12.23
2022-08-26T15:13:49.905Z,16.48
2022-08-26T15:16:17.064Z,10.02
2022-08-26T15:18:44.276Z,7.15
2022-08-26T15:21:11.903Z,15.60
2022-08-26T15:23:39.622Z,12.25
2022-08-26T15:26:10.197Z,11.05
2022-08-26T15:28:38.650Z,15.65
2022-08-26T15:31:06.808Z,11.45
2022-08-26T15:33:35.085Z,10.65
2022-08-26T15:36:04.139Z,12.77
2022-08-26T15:38:33.274Z,10.65
2022-08-26T15:41:03.230Z,14.40
2022-08-26T15:43:30.894Z,13.77
2022-08-26T15:45:58.317Z,15.07
2022-08-26T15:48:26.764Z,15.23
2022-08-26T15:50:56.788Z,11.77
2022-08-26T15:53:24.918Z,16.25
2022-08-26T15:55:55.261Z,17.88
2022-08-26T15:58:24.935Z,13.90
2022-08-26T16:00:55.380Z,9.38
2022-08-26T16:03:22.850Z,15.05
2022-08-26T16:05:50.299Z,15.20
2022-08-26T16:08:17.892Z,14.73
2022-08-26T16:10:50.450Z,9.57
2022-08-26T16:13:20.189Z,21.60
2022-08-26T16:15:48.405Z,21.65
2022-08-26T16:18:16.338Z,14.93
2022-08-26T16:21:12.520Z,13.07
2022-08-26T16:23:39.704Z,12.80
2022-08-26T16:26:12.199Z,13.23
2022-08-26T16:28:40.108Z,8.23
2022-08-26T16:31:08.510Z,20.10
2022-08-26T16:33:35.762Z,10.88
2022-08-26T16:36:02.950Z,18.10
2022-08-26T16:38:30.350Z,13.38
2022-08-26T16:40:59.423Z,13.80
2022-08-26T16:43:26.908Z,12.68
2022-08-26T16:45:54.450Z,15.50
2022-08-26T16:48:22.059Z,19.90
2022-08-26T16:50:49.507Z,13.85
2022-08-26T16:53:16.847Z,8.70
2022-08-26T16:55:48.766Z,22.25
2022-08-26T16:58:17.023Z,11.90
2022-08-26T17:00:44.178Z,16.67
2022-08-26T17:03:11.790Z,14.57
2022-08-26T17:05:40.404Z,15.55
2022-08-26T17:08:07.499Z,15.63
2022-08-26T17:10:35.072Z,12.63
2022-08-26T17:13:02.300Z,12.25
2022-08-26T17:15:29.721Z,21.00
2022-08-26T17:17:57.355Z,12.05
2022-08-26T17:20:25.532Z,8.48
2022-08-26T17:22:54.935Z,12.93
2022-08-26T17:25:28.872Z,11.38
2022-08-26T17:30:30.775Z,22.13
2022-08-26T17:32:58.438Z,12.35
2022-08-26T17:35:26.628Z,10.15
2022-08-26T17:37:56.117Z,10.20
2022-08-26T17:40:25.547Z,15.43
2022-08-26T17:42:52.862Z,16.00
2022-08-26T17:47:47.934Z,14.82
2022-08-26T17:50:17.055Z,18.65
2022-08-26T17:52:44.958Z,15.13
2022-08-26T17:55:15.162Z,29.25
2022-08-26T17:57:44.701Z,24.13
2022-08-26T18:00:23.400Z,22.25
2022-08-26T18:02:50.501Z,30.42
2022-08-26T18:05:18.217Z,21.98
2022-08-26T18:07:45.926Z,28.20
2022-08-26T18:10:15.539Z,29.23
2022-08-26T18:12:43.089Z,28.63
2022-08-26T18:15:12.436Z,28.23
2022-08-26T18:17:40.251Z,21.73
2022-08-26T18:20:10.312Z,23.08
2022-08-26T18:22:37.638Z,16.90
2022-08-26T18:25:06.210Z,23.10
2022-08-26T18:27:33.259Z,30.20
2022-08-26T18:30:00.529Z,21.15
2022-08-26T18:32:27.626Z,30.65
2022-08-26T18:34:54.704Z,46.30
2022-08-26T18:37:21.866Z,36.55
2022-08-26T18:39:48.935Z,46.97
2022-08-26T18:42:15.896Z,55.22
2022-08-26T18:44:43.130Z,30.92
2022-08-26T18:47:10.094Z,28.52
2022-08-26T18:49:37.305Z,18.65
2022-08-26T18:52:05.429Z,19.98
2022-08-26T18:54:32.681Z,26.50
2022-08-26T18:56:59.685Z,15.38
2022-08-26T18:59:29.690Z,15.73
2022-08-26T19:01:58.262Z,11.18
2022-08-26T19:04:26.037Z,14.52
2022-08-26T19:06:53.731Z,17.25
2022-08-26T19:09:21.071Z,15.63
2022-08-26T19:11:49.694Z,22.13
2022-08-26T19:14:18.143Z,19.05
2022-08-26T19:16:47.684Z,19.88
2022-08-26T19:19:15.540Z,15.93
2022-08-26T19:21:42.905Z,25.27
2022-08-26T19:24:15.388Z,23.17
2022-08-26T19:26:57.712Z,19.85
2022-08-26T19:29:28.451Z,28.30
2022-08-26T19:31:55.765Z,33.13
2022-08-26T19:34:23.298Z,30.65
2022-08-26T19:36:53.096Z,26.75
2022-08-26T19:39:21.024Z,15.50
2022-08-26T19:41:48.592Z,26.83
2022-08-26T19:44:38.541Z,31.88
2022-08-26T19:47:08.056Z,24.40
2022-08-26T19:49:35.857Z,21.85
2022-08-26T19:52:03.702Z,24.35
2022-08-26T19:54:30.928Z,20.23
2022-08-26T19:56:58.124Z,18.50
2022-08-26T19:59:25.199Z,25.02
2022-08-26T20:02:01.469Z,31.23
2022-08-26T20:04:32.631Z,17.27
2022-08-26T20:07:01.279Z,19.92
2022-08-26T20:09:29.861Z,23.25
2022-08-26T20:11:57.615Z,21.92
2022-08-26T20:14:26.504Z,25.65
2022-08-26T20:16:53.986Z,22.60
2022-08-26T20:19:39.681Z,17.92
2022-08-26T20:22:07.122Z,21.25
2022-08-26T20:24:35.685Z,18.20
2022-08-26T20:27:07.656Z,21.30
2022-08-26T20:29:36.556Z,17.23
2022-08-26T20:32:06.248Z,16.67
2022-08-26T20:34:34.936Z,17.55
2022-08-26T20:37:03.248Z,19.25
2022-08-26T20:39:30.344Z,23.65
2022-08-26T20:41:58.354Z,15.68
2022-08-26T20:44:27.165Z,18.70
2022-08-26T20:46:55.329Z,15.57
2022-08-26T20:49:22.497Z,12.55
2022-08-26T20:51:53.080Z,21.52
2022-08-26T20:54:26.227Z,14.38
2022-08-26T20:56:57.043Z,23.10
2022-08-26T20:59:24.592Z,14.40
2022-08-26T21:01:52.029Z,23.73
2022-08-26T21:04:23.217Z,17.40
2022-08-26T21:06:52.790Z,18.23
2022-08-26T21:09:22.476Z,18.80
2022-08-26T21:11:50.211Z,18.60
2022-08-26T21:14:20.580Z,18.02
2022-08-26T21:16:48.238Z,15.98
2022-08-26T21:19:18.124Z,14.48
2022-08-26T21:21:47.145Z,19.33
2022-08-26T21:24:15.114Z,15.45
2022-08-26T21:26:42.998Z,15.27
2022-08-26T21:29:10.201Z,42.08
2022-08-26T21:31:44.905Z,29.58
2022-08-26T21:34:13.611Z,21.75
2022-08-26T21:36:40.843Z,22.17
2022-08-26T21:39:11.512Z,22.33
2022-08-26T21:41:40.607Z,18.02
2022-08-26T21:44:08.844Z,19.45
2022-08-26T21:46:37.426Z,18.67
2022-08-26T21:49:08.579Z,17.45
2022-08-26T21:51:41.032Z,13.57
2022-08-26T21:54:11.232Z,17.17
2022-08-26T21:56:42.374Z,21.02
2022-08-26T21:59:09.659Z,18.83
2022-08-26T22:01:37.854Z,16.05
2022-08-26T22:04:07.510Z,19.88
2022-08-26T22:06:40.990Z,22.63
2022-08-26T22:09:08.366Z,15.13
2022-08-26T22:11:35.370Z,24.70
2022-08-26T22:14:02.535Z,19.80
2022-08-26T22:16:29.840Z,15.45
2022-08-26T22:18:57.103Z,20.00
2022-08-26T22:21:27.032Z,17.08
2022-08-26T22:23:58.056Z,22.80
2022-08-26T22:26:29.645Z,20.58
2022-08-26T22:28:59.499Z,22.30
2022-08-26T22:31:38.398Z,22.27
2022-08-26T22:34:09.259Z,20.38
2022-08-26T22:36:43.213Z,24.33
2022-08-26T22:39:16.935Z,19.08
2022-08-26T22:41:45.388Z,18.98
2022-08-26T22:44:12.864Z,22.90
2022-08-26T22:46:41.932Z,20.80
2022-08-26T22:49:10.943Z,17.88
2022-08-26T22:51:38.678Z,21.30
2022-08-26T22:54:06.093Z,20.52
2022-08-26T22:56:33.451Z,16.98
2022-08-26T22:59:00.827Z,21.50
2022-08-26T23:01:27.932Z,18.85
2022-08-26T23:03:55.198Z,22.98
2022-08-26T23:06:22.536Z,22.40
2022-08-26T23:08:49.607Z,19.42
2022-08-26T23:11:17.493Z,20.70
2022-08-26T23:13:44.853Z,18.42
2022-08-26T23:16:13.159Z,20.20
2022-08-26T23:18:41.709Z,25.02
2022-08-26T23:21:10.249Z,23.60
2022-08-26T23:23:38.490Z,24.02
2022-08-26T23:26:07.906Z,20.75
2022-08-26T23:28:37.258Z,20.73
2022-08-26T23:31:06.064Z,21.88
2022-08-26T23:33:51.724Z,19.85
2022-08-26T23:36:22.993Z,22.73
2022-08-26T23:38:53.058Z,20.27
2022-08-26T23:41:24.233Z,20.58
2022-08-26T23:43:51.896Z,19.88
2022-08-26T23:46:19.430Z,20.58
2022-08-26T23:48:47.663Z,15.48
2022-08-26T23:51:33.530Z,20.85
2022-08-26T23:54:00.910Z,21.65
2022-08-26T23:56:29.201Z,23.65
2022-08-26T23:58:56.914Z,20.33
